sensor_id;sensor_type;location;lat;lon;timestamp;P1;durP1;ratioP1;P2;durP2;ratioP2
80725;SDS011;70113;59.928;10.878;2023-07-16T00:00:00;6.57;;;3.40;;
80725;SDS011;70113;59.928;10.878;2023-07-16T00:02:25;7.97;;;5.13;;
80725;SDS011;70113;59.928;10.878;2023-07-16T00:04:51;8.50;;;5.88;;
80725;SDS011;70113;59.928;10.878;2023-07-16T00:07:17;9.40;;;6.00;;
80725;SDS011;70113;59.928;10.878;2023-07-16T00:09:43;9.85;;;6.43;;
80725;SDS011;70113;59.928;10.878;2023-07-16T00:12:09;9.23;;;5.68;;
80725;SDS011;70113;59.928;10.878;2023-07-16T00:14:35;8.10;;;6.40;;
80725;SDS011;70113;59.928;10.878;2023-07-16T00:17:01;9.40;;;5.93;;
80725;SDS011;70113;59.928;10.878;2023-07-16T00:19:27;7.40;;;5.35;;
80725;SDS011;70113;59.928;10.878;2023-07-16T00:21:52;6.80;;;5.35;;
80725;SDS011;70113;59.928;10.878;2023-07-16T00:24:18;6.65;;;4.60;;
80725;SDS011;70113;59.928;10.878;2023-07-16T00:26:43;7.88;;;4.85;;
80725;SDS011;70113;59.928;10.878;2023-07-16T00:29:09;6.93;;;5.47;;
80725;SDS011;70113;59.928;10.878;2023-07-16T00:31:35;7.43;;;5.43;;
80725;SDS011;70113;59.928;10.878;2023-07-16T00:34:01;8.30;;;5.05;;
80725;SDS011;70113;59.928;10.878;2023-07-16T00:36:29;6.90;;;3.95;;
80725;SDS011;70113;59.928;10.878;2023-07-16T00:38:55;4.60;;;2.70;;
80725;SDS011;70113;59.928;10.878;2023-07-16T00:41:21;3.95;;;2.47;;
80725;SDS011;70113;59.928;10.878;2023-07-16T00:43:46;4.82;;;2.58;;
80725;SDS011;70113;59.928;10.878;2023-07-16T00:46:12;7.20;;;2.97;;
80725;SDS011;70113;59.928;10.878;2023-07-16T00:48:38;4.80;;;2.40;;
80725;SDS011;70113;59.928;10.878;2023-07-16T00:51:06;4.95;;;2.90;;
80725;SDS011;70113;59.928;10.878;2023-07-16T00:53:32;6.35;;;3.28;;
80725;SDS011;70113;59.928;10.878;2023-07-16T00:55:58;5.93;;;4.30;;
80725;SDS011;70113;59.928;10.878;2023-07-16T00:58:24;5.55;;;4.18;;
80725;SDS011;70113;59.928;10.878;2023-07-16T01:00:50;8.98;;;5.10;;
80725;SDS011;70113;59.928;10.878;2023-07-16T01:03:16;9.82;;;4.32;;
80725;SDS011;70113;59.928;10.878;2023-07-16T01:08:21;7.38;;;5.30;;
80725;SDS011;70113;59.928;10.878;2023-07-16T01:11:01;6.23;;;4.63;;
80725;SDS011;70113;59.928;10.878;2023-07-16T01:13:28;5.63;;;4.40;;
80725;SDS011;70113;59.928;10.878;2023-07-16T01:15:54;5.65;;;3.50;;
80725;SDS011;70113;59.928;10.878;2023-07-16T01:18:20;5.63;;;3.70;;
80725;SDS011;70113;59.928;10.878;2023-07-16T01:20:45;5.88;;;3.50;;
80725;SDS011;70113;59.928;10.878;2023-07-16T01:28:37;5.93;;;4.07;;
80725;SDS011;70113;59.928;10.878;2023-07-16T01:31:14;5.63;;;3.70;;
80725;SDS011;70113;59.928;10.878;2023-07-16T01:33:42;5.80;;;3.70;;
80725;SDS011;70113;59.928;10.878;2023-07-16T01:36:08;7.25;;;3.65;;
80725;SDS011;70113;59.928;10.878;2023-07-16T01:38:35;8.18;;;3.72;;
80725;SDS011;70113;59.928;10.878;2023-07-16T01:41:01;5.75;;;3.53;;
80725;SDS011;70113;59.928;10.878;2023-07-16T01:43:27;7.63;;;3.70;;
80725;SDS011;70113;59.928;10.878;2023-07-16T01:45:53;6.00;;;3.40;;
80725;SDS011;70113;59.928;10.878;2023-07-16T01:48:32;6.70;;;3.40;;
80725;SDS011;70113;59.928;10.878;2023-07-16T01:51:00;6.60;;;3.05;;
80725;SDS011;70113;59.928;10.878;2023-07-16T01:53:27;5.53;;;3.08;;
80725;SDS011;70113;59.928;10.878;2023-07-16T01:55:52;5.65;;;3.00;;
80725;SDS011;70113;59.928;10.878;2023-07-16T01:58:18;7.22;;;3.17;;
80725;SDS011;70113;59.928;10.878;2023-07-16T02:00:44;6.65;;;2.90;;
80725;SDS011;70113;59.928;10.878;2023-07-16T02:03:10;6.68;;;2.83;;
80725;SDS011;70113;59.928;10.878;2023-07-16T02:05:35;4.75;;;2.90;;
80725;SDS011;70113;59.928;10.878;2023-07-16T02:08:01;5.57;;;3.20;;
80725;SDS011;70113;59.928;10.878;2023-07-16T02:10:27;6.68;;;3.10;;
80725;SDS011;70113;59.928;10.878;2023-07-16T02:12:53;7.40;;;3.25;;
80725;SDS011;70113;59.928;10.878;2023-07-16T02:15:18;6.05;;;3.28;;
80725;SDS011;70113;59.928;10.878;2023-07-16T02:17:45;5.22;;;3.17;;
80725;SDS011;70113;59.928;10.878;2023-07-16T02:20:10;8.10;;;3.53;;
80725;SDS011;70113;59.928;10.878;2023-07-16T02:22:37;5.43;;;3.35;;
80725;SDS011;70113;59.928;10.878;2023-07-16T02:25:02;5.50;;;3.20;;
80725;SDS011;70113;59.928;10.878;2023-07-16T02:27:29;7.13;;;3.85;;
80725;SDS011;70113;59.928;10.878;2023-07-16T02:29:55;9.55;;;3.63;;
80725;SDS011;70113;59.928;10.878;2023-07-16T02:32:21;6.32;;;3.45;;
80725;SDS011;70113;59.928;10.878;2023-07-16T02:34:46;8.05;;;3.60;;
80725;SDS011;70113;59.928;10.878;2023-07-16T02:37:12;7.53;;;3.17;;
80725;SDS011;70113;59.928;10.878;2023-07-16T02:39:38;6.97;;;3.25;;
80725;SDS011;70113;59.928;10.878;2023-07-16T02:42:04;5.68;;;3.03;;
80725;SDS011;70113;59.928;10.878;2023-07-16T02:44:30;6.45;;;3.08;;
80725;SDS011;70113;59.928;10.878;2023-07-16T02:46:56;5.47;;;3.20;;
80725;SDS011;70113;59.928;10.878;2023-07-16T02:49:21;8.20;;;3.22;;
80725;SDS011;70113;59.928;10.878;2023-07-16T02:51:47;7.82;;;2.85;;
80725;SDS011;70113;59.928;10.878;2023-07-16T02:54:13;6.70;;;2.90;;
80725;SDS011;70113;59.928;10.878;2023-07-16T02:56:39;6.72;;;3.25;;
80725;SDS011;70113;59.928;10.878;2023-07-16T02:59:04;9.20;;;3.45;;
80725;SDS011;70113;59.928;10.878;2023-07-16T03:01:30;7.85;;;3.05;;
80725;SDS011;70113;59.928;10.878;2023-07-16T03:03:56;5.25;;;3.05;;
80725;SDS011;70113;59.928;10.878;2023-07-16T03:06:22;6.18;;;3.38;;
80725;SDS011;70113;59.928;10.878;2023-07-16T03:08:48;5.65;;;3.00;;
80725;SDS011;70113;59.928;10.878;2023-07-16T03:11:14;5.35;;;2.85;;
80725;SDS011;70113;59.928;10.878;2023-07-16T03:13:39;6.15;;;3.40;;
80725;SDS011;70113;59.928;10.878;2023-07-16T03:16:05;6.25;;;3.00;;
80725;SDS011;70113;59.928;10.878;2023-07-16T03:18:30;4.68;;;2.88;;
80725;SDS011;70113;59.928;10.878;2023-07-16T03:20:57;5.97;;;3.10;;
80725;SDS011;70113;59.928;10.878;2023-07-16T03:23:23;7.53;;;3.50;;
80725;SDS011;70113;59.928;10.878;2023-07-16T03:25:49;6.07;;;3.70;;
80725;SDS011;70113;59.928;10.878;2023-07-16T03:28:15;5.78;;;3.22;;
80725;SDS011;70113;59.928;10.878;2023-07-16T03:30:45;6.13;;;3.35;;
80725;SDS011;70113;59.928;10.878;2023-07-16T03:33:14;6.47;;;2.92;;
80725;SDS011;70113;59.928;10.878;2023-07-16T03:35:44;5.40;;;2.92;;
80725;SDS011;70113;59.928;10.878;2023-07-16T03:38:10;5.75;;;3.20;;
80725;SDS011;70113;59.928;10.878;2023-07-16T03:40:37;6.80;;;3.85;;
80725;SDS011;70113;59.928;10.878;2023-07-16T03:43:02;6.75;;;3.90;;
80725;SDS011;70113;59.928;10.878;2023-07-16T03:45:28;6.90;;;3.83;;
80725;SDS011;70113;59.928;10.878;2023-07-16T03:47:54;5.72;;;3.47;;
80725;SDS011;70113;59.928;10.878;2023-07-16T03:50:20;6.80;;;3.70;;
80725;SDS011;70113;59.928;10.878;2023-07-16T03:52:45;9.40;;;3.92;;
80725;SDS011;70113;59.928;10.878;2023-07-16T03:55:12;7.68;;;3.30;;
80725;SDS011;70113;59.928;10.878;2023-07-16T03:57:38;5.95;;;3.30;;
80725;SDS011;70113;59.928;10.878;2023-07-16T04:00:04;7.07;;;3.45;;
80725;SDS011;70113;59.928;10.878;2023-07-16T04:02:35;6.40;;;3.38;;
80725;SDS011;70113;59.928;10.878;2023-07-16T04:05:01;5.35;;;3.25;;
80725;SDS011;70113;59.928;10.878;2023-07-16T04:07:28;6.28;;;3.85;;
80725;SDS011;70113;59.928;10.878;2023-07-16T04:09:54;8.45;;;3.83;;
80725;SDS011;70113;59.928;10.878;2023-07-16T04:12:19;7.20;;;3.58;;
80725;SDS011;70113;59.928;10.878;2023-07-16T04:14:46;8.15;;;4.22;;
80725;SDS011;70113;59.928;10.878;2023-07-16T04:17:12;6.72;;;3.80;;
80725;SDS011;70113;59.928;10.878;2023-07-16T04:19:38;6.65;;;3.65;;
80725;SDS011;70113;59.928;10.878;2023-07-16T04:22:03;6.35;;;3.88;;
80725;SDS011;70113;59.928;10.878;2023-07-16T04:24:30;7.72;;;4.40;;
80725;SDS011;70113;59.928;10.878;2023-07-16T04:26:56;8.07;;;3.70;;
80725;SDS011;70113;59.928;10.878;2023-07-16T04:29:23;7.40;;;3.80;;
80725;SDS011;70113;59.928;10.878;2023-07-16T04:31:49;7.68;;;4.05;;
80725;SDS011;70113;59.928;10.878;2023-07-16T04:34:14;6.90;;;3.70;;
80725;SDS011;70113;59.928;10.878;2023-07-16T04:36:41;8.25;;;3.65;;
80725;SDS011;70113;59.928;10.878;2023-07-16T04:39:08;6.50;;;3.63;;
80725;SDS011;70113;59.928;10.878;2023-07-16T04:41:33;9.05;;;4.22;;
80725;SDS011;70113;59.928;10.878;2023-07-16T04:43:59;8.35;;;3.90;;
80725;SDS011;70113;59.928;10.878;2023-07-16T04:46:25;6.05;;;3.67;;
80725;SDS011;70113;59.928;10.878;2023-07-16T04:48:51;6.47;;;3.83;;
80725;SDS011;70113;59.928;10.878;2023-07-16T04:51:16;6.40;;;3.78;;
80725;SDS011;70113;59.928;10.878;2023-07-16T04:53:42;6.75;;;3.53;;
80725;SDS011;70113;59.928;10.878;2023-07-16T04:56:12;6.90;;;3.53;;
80725;SDS011;70113;59.928;10.878;2023-07-16T04:58:39;6.40;;;3.77;;
80725;SDS011;70113;59.928;10.878;2023-07-16T05:01:04;6.88;;;4.05;;
80725;SDS011;70113;59.928;10.878;2023-07-16T05:03:30;6.05;;;3.42;;
80725;SDS011;70113;59.928;10.878;2023-07-16T05:05:56;6.95;;;3.30;;
80725;SDS011;70113;59.928;10.878;2023-07-16T05:08:21;9.85;;;3.58;;
80725;SDS011;70113;59.928;10.878;2023-07-16T05:10:47;7.47;;;3.45;;
80725;SDS011;70113;59.928;10.878;2023-07-16T05:13:13;7.18;;;3.47;;
80725;SDS011;70113;59.928;10.878;2023-07-16T05:15:40;4.90;;;3.05;;
80725;SDS011;70113;59.928;10.878;2023-07-16T05:18:06;6.88;;;3.28;;
80725;SDS011;70113;59.928;10.878;2023-07-16T05:20:31;7.00;;;3.65;;
80725;SDS011;70113;59.928;10.878;2023-07-16T05:22:57;8.40;;;3.20;;
80725;SDS011;70113;59.928;10.878;2023-07-16T05:25:23;6.80;;;2.75;;
80725;SDS011;70113;59.928;10.878;2023-07-16T05:27:49;5.78;;;2.80;;
80725;SDS011;70113;59.928;10.878;2023-07-16T05:30:14;7.50;;;3.38;;
80725;SDS011;70113;59.928;10.878;2023-07-16T05:32:40;6.25;;;3.15;;
80725;SDS011;70113;59.928;10.878;2023-07-16T05:35:06;6.05;;;3.10;;
80725;SDS011;70113;59.928;10.878;2023-07-16T05:37:32;6.00;;;2.95;;
80725;SDS011;70113;59.928;10.878;2023-07-16T05:39:57;5.63;;;2.67;;
80725;SDS011;70113;59.928;10.878;2023-07-16T05:42:23;6.90;;;2.95;;
80725;SDS011;70113;59.928;10.878;2023-07-16T05:44:49;7.25;;;2.78;;
80725;SDS011;70113;59.928;10.878;2023-07-16T05:47:15;5.75;;;2.65;;
80725;SDS011;70113;59.928;10.878;2023-07-16T05:49:40;6.20;;;2.55;;
80725;SDS011;70113;59.928;10.878;2023-07-16T05:52:06;6.57;;;2.50;;
80725;SDS011;70113;59.928;10.878;2023-07-16T05:54:31;4.88;;;2.78;;
80725;SDS011;70113;59.928;10.878;2023-07-16T05:56:57;4.65;;;2.45;;
80725;SDS011;70113;59.928;10.878;2023-07-16T05:59:23;7.90;;;2.92;;
80725;SDS011;70113;59.928;10.878;2023-07-16T06:01:49;5.07;;;2.30;;
80725;SDS011;70113;59.928;10.878;2023-07-16T06:04:14;4.68;;;2.17;;
80725;SDS011;70113;59.928;10.878;2023-07-16T06:06:40;6.50;;;3.08;;
80725;SDS011;70113;59.928;10.878;2023-07-16T06:09:05;5.90;;;2.63;;
80725;SDS011;70113;59.928;10.878;2023-07-16T06:11:31;6.28;;;2.47;;
80725;SDS011;70113;59.928;10.878;2023-07-16T06:13:57;6.43;;;2.55;;
80725;SDS011;70113;59.928;10.878;2023-07-16T06:16:23;8.45;;;2.88;;
80725;SDS011;70113;59.928;10.878;2023-07-16T06:18:48;4.57;;;2.30;;
80725;SDS011;70113;59.928;10.878;2023-07-16T06:21:14;6.80;;;2.42;;
80725;SDS011;70113;59.928;10.878;2023-07-16T06:23:40;5.88;;;2.53;;
80725;SDS011;70113;59.928;10.878;2023-07-16T06:26:06;4.70;;;2.25;;
80725;SDS011;70113;59.928;10.878;2023-07-16T06:28:31;5.85;;;2.40;;
80725;SDS011;70113;59.928;10.878;2023-07-16T06:30:58;6.07;;;2.40;;
80725;SDS011;70113;59.928;10.878;2023-07-16T06:33:23;5.75;;;2.60;;
80725;SDS011;70113;59.928;10.878;2023-07-16T06:35:51;4.97;;;2.20;;
80725;SDS011;70113;59.928;10.878;2023-07-16T06:38:16;6.53;;;2.30;;
80725;SDS011;70113;59.928;10.878;2023-07-16T06:40:45;5.72;;;2.40;;
80725;SDS011;70113;59.928;10.878;2023-07-16T06:43:13;7.03;;;2.50;;
80725;SDS011;70113;59.928;10.878;2023-07-16T06:45:39;6.68;;;2.63;;
80725;SDS011;70113;59.928;10.878;2023-07-16T06:48:04;9.45;;;2.55;;
80725;SDS011;70113;59.928;10.878;2023-07-16T06:50:30;5.45;;;2.10;;
80725;SDS011;70113;59.928;10.878;2023-07-16T06:52:56;5.75;;;2.40;;
80725;SDS011;70113;59.928;10.878;2023-07-16T06:55:22;5.32;;;2.38;;
80725;SDS011;70113;59.928;10.878;2023-07-16T06:57:47;5.15;;;2.13;;
80725;SDS011;70113;59.928;10.878;2023-07-16T07:00:14;10.15;;;2.65;;
80725;SDS011;70113;59.928;10.878;2023-07-16T07:02:40;5.63;;;2.30;;
80725;SDS011;70113;59.928;10.878;2023-07-16T07:05:07;6.65;;;2.80;;
80725;SDS011;70113;59.928;10.878;2023-07-16T07:07:33;9.80;;;2.65;;
80725;SDS011;70113;59.928;10.878;2023-07-16T07:09:59;9.25;;;2.88;;
80725;SDS011;70113;59.928;10.878;2023-07-16T07:12:24;6.63;;;2.92;;
80725;SDS011;70113;59.928;10.878;2023-07-16T07:14:50;9.43;;;3.10;;
80725;SDS011;70113;59.928;10.878;2023-07-16T07:17:16;7.20;;;3.00;;
80725;SDS011;70113;59.928;10.878;2023-07-16T07:19:42;10.23;;;3.13;;
80725;SDS011;70113;59.928;10.878;2023-07-16T07:22:08;8.90;;;3.30;;
80725;SDS011;70113;59.928;10.878;2023-07-16T07:24:34;7.57;;;2.95;;
80725;SDS011;70113;59.928;10.878;2023-07-16T07:26:59;9.10;;;3.00;;
80725;SDS011;70113;59.928;10.878;2023-07-16T07:29:25;8.27;;;2.97;;
80725;SDS011;70113;59.928;10.878;2023-07-16T07:31:52;6.30;;;2.75;;
80725;SDS011;70113;59.928;10.878;2023-07-16T07:34:18;8.43;;;2.80;;
80725;SDS011;70113;59.928;10.878;2023-07-16T07:36:43;8.82;;;2.78;;
80725;SDS011;70113;59.928;10.878;2023-07-16T07:39:10;9.80;;;3.08;;
80725;SDS011;70113;59.928;10.878;2023-07-16T07:41:35;6.55;;;2.78;;
80725;SDS011;70113;59.928;10.878;2023-07-16T07:44:01;12.27;;;3.22;;
80725;SDS011;70113;59.928;10.878;2023-07-16T07:46:27;9.57;;;3.08;;
80725;SDS011;70113;59.928;10.878;2023-07-16T07:48:53;6.90;;;2.92;;
80725;SDS011;70113;59.928;10.878;2023-07-16T07:51:19;9.80;;;3.20;;
80725;SDS011;70113;59.928;10.878;2023-07-16T07:53:45;8.07;;;2.78;;
80725;SDS011;70113;59.928;10.878;2023-07-16T07:56:11;11.15;;;3.10;;
80725;SDS011;70113;59.928;10.878;2023-07-16T07:58:37;8.82;;;3.03;;
80725;SDS011;70113;59.928;10.878;2023-07-16T08:01:04;6.93;;;2.95;;
80725;SDS011;70113;59.928;10.878;2023-07-16T08:03:31;10.77;;;3.08;;
80725;SDS011;70113;59.928;10.878;2023-07-16T08:05:56;7.55;;;2.75;;
80725;SDS011;70113;59.928;10.878;2023-07-16T08:08:22;10.30;;;3.35;;
80725;SDS011;70113;59.928;10.878;2023-07-16T08:10:48;7.47;;;2.90;;
80725;SDS011;70113;59.928;10.878;2023-07-16T08:13:14;11.65;;;3.85;;
80725;SDS011;70113;59.928;10.878;2023-07-16T08:15:39;9.88;;;2.85;;
80725;SDS011;70113;59.928;10.878;2023-07-16T08:18:05;11.57;;;3.40;;
80725;SDS011;70113;59.928;10.878;2023-07-16T08:20:31;9.30;;;2.90;;
80725;SDS011;70113;59.928;10.878;2023-07-16T08:22:56;8.73;;;3.00;;
80725;SDS011;70113;59.928;10.878;2023-07-16T08:25:22;12.30;;;3.30;;
80725;SDS011;70113;59.928;10.878;2023-07-16T08:27:48;12.48;;;4.07;;
80725;SDS011;70113;59.928;10.878;2023-07-16T08:30:13;12.85;;;3.05;;
80725;SDS011;70113;59.928;10.878;2023-07-16T08:32:39;11.45;;;3.20;;
80725;SDS011;70113;59.928;10.878;2023-07-16T08:35:05;14.70;;;3.30;;
80725;SDS011;70113;59.928;10.878;2023-07-16T08:37:31;10.05;;;3.28;;
80725;SDS011;70113;59.928;10.878;2023-07-16T08:39:57;9.98;;;3.35;;
80725;SDS011;70113;59.928;10.878;2023-07-16T08:42:23;12.25;;;3.25;;
80725;SDS011;70113;59.928;10.878;2023-07-16T08:44:49;10.27;;;3.50;;
80725;SDS011;70113;59.928;10.878;2023-07-16T08:47:18;11.45;;;3.25;;
80725;SDS011;70113;59.928;10.878;2023-07-16T08:49:53;13.52;;;3.33;;
80725;SDS011;70113;59.928;10.878;2023-07-16T08:52:21;12.25;;;3.42;;
80725;SDS011;70113;59.928;10.878;2023-07-16T08:54:47;13.02;;;3.33;;
80725;SDS011;70113;59.928;10.878;2023-07-16T08:57:13;11.73;;;3.20;;
80725;SDS011;70113;59.928;10.878;2023-07-16T08:59:40;10.77;;;3.47;;
80725;SDS011;70113;59.928;10.878;2023-07-16T09:02:06;10.30;;;3.10;;
80725;SDS011;70113;59.928;10.878;2023-07-16T09:04:32;12.43;;;3.30;;
80725;SDS011;70113;59.928;10.878;2023-07-16T09:06:58;14.02;;;3.60;;
80725;SDS011;70113;59.928;10.878;2023-07-16T09:09:24;12.27;;;3.60;;
80725;SDS011;70113;59.928;10.878;2023-07-16T09:11:50;13.38;;;3.38;;
80725;SDS011;70113;59.928;10.878;2023-07-16T09:14:19;13.65;;;3.20;;
80725;SDS011;70113;59.928;10.878;2023-07-16T09:16:50;13.60;;;3.65;;
80725;SDS011;70113;59.928;10.878;2023-07-16T09:19:16;8.38;;;3.03;;
80725;SDS011;70113;59.928;10.878;2023-07-16T09:21:46;12.20;;;2.90;;
80725;SDS011;70113;59.928;10.878;2023-07-16T09:24:15;12.00;;;3.40;;
80725;SDS011;70113;59.928;10.878;2023-07-16T09:26:51;11.90;;;3.25;;
80725;SDS011;70113;59.928;10.878;2023-07-16T09:29:18;14.60;;;3.15;;
80725;SDS011;70113;59.928;10.878;2023-07-16T09:31:54;10.57;;;3.15;;
80725;SDS011;70113;59.928;10.878;2023-07-16T09:34:20;12.48;;;3.00;;
80725;SDS011;70113;59.928;10.878;2023-07-16T09:36:47;17.55;;;3.60;;
80725;SDS011;70113;59.928;10.878;2023-07-16T09:39:16;14.52;;;3.35;;
80725;SDS011;70113;59.928;10.878;2023-07-16T09:41:43;14.13;;;3.10;;
80725;SDS011;70113;59.928;10.878;2023-07-16T09:44:10;15.68;;;3.30;;
80725;SDS011;70113;59.928;10.878;2023-07-16T09:46:37;9.30;;;3.17;;
80725;SDS011;70113;59.928;10.878;2023-07-16T09:49:02;13.48;;;3.17;;
80725;SDS011;70113;59.928;10.878;2023-07-16T09:51:28;15.00;;;3.88;;
80725;SDS011;70113;59.928;10.878;2023-07-16T09:53:55;15.18;;;3.38;;
80725;SDS011;70113;59.928;10.878;2023-07-16T09:56:22;17.42;;;3.65;;
80725;SDS011;70113;59.928;10.878;2023-07-16T09:58:55;10.88;;;2.83;;
80725;SDS011;70113;59.928;10.878;2023-07-16T10:01:25;17.52;;;3.75;;
80725;SDS011;70113;59.928;10.878;2023-07-16T10:03:50;12.60;;;2.90;;
80725;SDS011;70113;59.928;10.878;2023-07-16T10:06:17;12.73;;;3.10;;
80725;SDS011;70113;59.928;10.878;2023-07-16T10:08:48;15.13;;;2.72;;
80725;SDS011;70113;59.928;10.878;2023-07-16T10:11:18;12.77;;;2.90;;
80725;SDS011;70113;59.928;10.878;2023-07-16T10:13:50;12.43;;;3.03;;
80725;SDS011;70113;59.928;10.878;2023-07-16T10:16:20;14.35;;;3.22;;
80725;SDS011;70113;59.928;10.878;2023-07-16T10:18:51;13.82;;;3.55;;
80725;SDS011;70113;59.928;10.878;2023-07-16T10:21:23;13.27;;;3.28;;
80725;SDS011;70113;59.928;10.878;2023-07-16T10:23:56;11.75;;;3.22;;
80725;SDS011;70113;59.928;10.878;2023-07-16T10:26:27;14.60;;;3.17;;
80725;SDS011;70113;59.928;10.878;2023-07-16T10:28:54;21.10;;;3.83;;
80725;SDS011;70113;59.928;10.878;2023-07-16T10:31:24;11.50;;;3.20;;
80725;SDS011;70113;59.928;10.878;2023-07-16T10:34:02;11.68;;;3.03;;
80725;SDS011;70113;59.928;10.878;2023-07-16T10:36:37;14.85;;;3.28;;
80725;SDS011;70113;59.928;10.878;2023-07-16T10:39:05;14.52;;;3.60;;
80725;SDS011;70113;59.928;10.878;2023-07-16T10:41:31;12.05;;;3.10;;
80725;SDS011;70113;59.928;10.878;2023-07-16T10:44:00;13.77;;;3.70;;
80725;SDS011;70113;59.928;10.878;2023-07-16T10:46:26;15.48;;;3.45;;
80725;SDS011;70113;59.928;10.878;2023-07-16T10:48:52;17.83;;;3.97;;
80725;SDS011;70113;59.928;10.878;2023-07-16T10:51:24;14.43;;;3.72;;
80725;SDS011;70113;59.928;10.878;2023-07-16T10:53:50;21.48;;;5.43;;
80725;SDS011;70113;59.928;10.878;2023-07-16T10:56:16;16.73;;;4.30;;
80725;SDS011;70113;59.928;10.878;2023-07-16T10:58:42;18.10;;;4.43;;
80725;SDS011;70113;59.928;10.878;2023-07-16T11:01:08;16.95;;;4.30;;
80725;SDS011;70113;59.928;10.878;2023-07-16T11:03:34;18.35;;;4.68;;
80725;SDS011;70113;59.928;10.878;2023-07-16T11:06:07;20.27;;;4.90;;
80725;SDS011;70113;59.928;10.878;2023-07-16T11:08:34;16.38;;;4.65;;
80725;SDS011;70113;59.928;10.878;2023-07-16T11:10:59;15.25;;;4.50;;
80725;SDS011;70113;59.928;10.878;2023-07-16T11:13:26;19.52;;;4.57;;
80725;SDS011;70113;59.928;10.878;2023-07-16T11:15:56;19.43;;;4.73;;
80725;SDS011;70113;59.928;10.878;2023-07-16T11:18:22;16.90;;;4.90;;
80725;SDS011;70113;59.928;10.878;2023-07-16T11:20:50;15.55;;;4.55;;
80725;SDS011;70113;59.928;10.878;2023-07-16T11:23:17;17.90;;;4.55;;
80725;SDS011;70113;59.928;10.878;2023-07-16T11:25:49;17.08;;;4.78;;
80725;SDS011;70113;59.928;10.878;2023-07-16T11:28:16;18.92;;;5.32;;
80725;SDS011;70113;59.928;10.878;2023-07-16T11:30:42;21.15;;;5.43;;
80725;SDS011;70113;59.928;10.878;2023-07-16T11:33:11;17.38;;;5.05;;
80725;SDS011;70113;59.928;10.878;2023-07-16T11:35:38;16.23;;;5.13;;
80725;SDS011;70113;59.928;10.878;2023-07-16T11:38:04;21.40;;;5.95;;
80725;SDS011;70113;59.928;10.878;2023-07-16T11:40:33;19.42;;;5.57;;
80725;SDS011;70113;59.928;10.878;2023-07-16T11:43:06;15.25;;;5.53;;
80725;SDS011;70113;59.928;10.878;2023-07-16T11:45:34;18.35;;;5.75;;
80725;SDS011;70113;59.928;10.878;2023-07-16T11:47:59;18.15;;;6.40;;
80725;SDS011;70113;59.928;10.878;2023-07-16T11:50:25;16.08;;;6.05;;
80725;SDS011;70113;59.928;10.878;2023-07-16T11:52:54;17.27;;;6.60;;
80725;SDS011;70113;59.928;10.878;2023-07-16T11:55:25;16.38;;;6.30;;
80725;SDS011;70113;59.928;10.878;2023-07-16T11:57:50;18.00;;;6.68;;
80725;SDS011;70113;59.928;10.878;2023-07-16T12:00:16;17.90;;;5.57;;
80725;SDS011;70113;59.928;10.878;2023-07-16T12:02:43;17.88;;;5.53;;
80725;SDS011;70113;59.928;10.878;2023-07-16T12:05:17;18.95;;;6.18;;
80725;SDS011;70113;59.928;10.878;2023-07-16T12:07:44;19.58;;;5.80;;
80725;SDS011;70113;59.928;10.878;2023-07-16T12:10:10;19.30;;;6.03;;
80725;SDS011;70113;59.928;10.878;2023-07-16T12:12:35;14.70;;;5.18;;
80725;SDS011;70113;59.928;10.878;2023-07-16T12:15:04;14.90;;;4.85;;
80725;SDS011;70113;59.928;10.878;2023-07-16T12:17:30;21.02;;;6.47;;
80725;SDS011;70113;59.928;10.878;2023-07-16T12:19:56;14.77;;;5.00;;
80725;SDS011;70113;59.928;10.878;2023-07-16T12:22:21;17.15;;;5.65;;
80725;SDS011;70113;59.928;10.878;2023-07-16T12:24:49;15.40;;;5.10;;
80725;SDS011;70113;59.928;10.878;2023-07-16T12:27:15;14.80;;;5.18;;
80725;SDS011;70113;59.928;10.878;2023-07-16T12:29:42;14.30;;;5.18;;
80725;SDS011;70113;59.928;10.878;2023-07-16T12:32:07;13.40;;;4.40;;
80725;SDS011;70113;59.928;10.878;2023-07-16T12:34:34;16.15;;;5.25;;
80725;SDS011;70113;59.928;10.878;2023-07-16T12:36:59;17.63;;;5.40;;
80725;SDS011;70113;59.928;10.878;2023-07-16T12:39:25;18.83;;;4.90;;
80725;SDS011;70113;59.928;10.878;2023-07-16T12:41:51;16.73;;;5.72;;
80725;SDS011;70113;59.928;10.878;2023-07-16T12:44:17;18.38;;;5.43;;
80725;SDS011;70113;59.928;10.878;2023-07-16T12:46:42;14.60;;;4.80;;
80725;SDS011;70113;59.928;10.878;2023-07-16T12:49:08;15.90;;;4.78;;
80725;SDS011;70113;59.928;10.878;2023-07-16T12:51:33;19.80;;;4.85;;
80725;SDS011;70113;59.928;10.878;2023-07-16T12:53:59;18.92;;;5.50;;
80725;SDS011;70113;59.928;10.878;2023-07-16T12:56:28;16.17;;;4.40;;
80725;SDS011;70113;59.928;10.878;2023-07-16T12:58:54;12.95;;;4.65;;
80725;SDS011;70113;59.928;10.878;2023-07-16T13:01:19;15.10;;;5.10;;
80725;SDS011;70113;59.928;10.878;2023-07-16T13:03:45;14.00;;;5.00;;
80725;SDS011;70113;59.928;10.878;2023-07-16T13:06:11;18.65;;;5.30;;
80725;SDS011;70113;59.928;10.878;2023-07-16T13:08:36;12.13;;;4.35;;
80725;SDS011;70113;59.928;10.878;2023-07-16T13:11:02;14.93;;;4.57;;
80725;SDS011;70113;59.928;10.878;2023-07-16T13:13:28;17.23;;;4.90;;
80725;SDS011;70113;59.928;10.878;2023-07-16T13:15:54;15.15;;;4.93;;
80725;SDS011;70113;59.928;10.878;2023-07-16T13:18:20;15.00;;;5.00;;
80725;SDS011;70113;59.928;10.878;2023-07-16T13:20:46;15.88;;;5.30;;
80725;SDS011;70113;59.928;10.878;2023-07-16T13:23:12;14.80;;;4.32;;
80725;SDS011;70113;59.928;10.878;2023-07-16T13:25:37;17.85;;;5.13;;
80725;SDS011;70113;59.928;10.878;2023-07-16T13:28:04;18.50;;;5.05;;
80725;SDS011;70113;59.928;10.878;2023-07-16T13:30:31;16.02;;;5.28;;
80725;SDS011;70113;59.928;10.878;2023-07-16T13:32:57;17.92;;;5.18;;
80725;SDS011;70113;59.928;10.878;2023-07-16T13:35:23;12.50;;;4.53;;
80725;SDS011;70113;59.928;10.878;2023-07-16T13:37:49;12.43;;;4.30;;
80725;SDS011;70113;59.928;10.878;2023-07-16T13:40:14;16.65;;;4.80;;
80725;SDS011;70113;59.928;10.878;2023-07-16T13:42:40;13.40;;;4.18;;
80725;SDS011;70113;59.928;10.878;2023-07-16T13:45:06;16.00;;;4.32;;
80725;SDS011;70113;59.928;10.878;2023-07-16T13:47:33;12.55;;;4.15;;
80725;SDS011;70113;59.928;10.878;2023-07-16T13:49:58;13.85;;;4.32;;
80725;SDS011;70113;59.928;10.878;2023-07-16T13:52:24;11.85;;;3.67;;
80725;SDS011;70113;59.928;10.878;2023-07-16T13:54:50;14.32;;;3.15;;
80725;SDS011;70113;59.928;10.878;2023-07-16T13:57:15;11.15;;;3.05;;
80725;SDS011;70113;59.928;10.878;2023-07-16T13:59:41;11.55;;;3.17;;
80725;SDS011;70113;59.928;10.878;2023-07-16T14:02:07;12.30;;;3.30;;
80725;SDS011;70113;59.928;10.878;2023-07-16T14:04:33;11.60;;;3.08;;
80725;SDS011;70113;59.928;10.878;2023-07-16T14:06:59;13.65;;;3.45;;
80725;SDS011;70113;59.928;10.878;2023-07-16T14:09:25;16.27;;;3.80;;
80725;SDS011;70113;59.928;10.878;2023-07-16T14:11:51;10.57;;;3.10;;
80725;SDS011;70113;59.928;10.878;2023-07-16T14:14:17;14.73;;;3.22;;
80725;SDS011;70113;59.928;10.878;2023-07-16T14:16:43;14.40;;;3.70;;
80725;SDS011;70113;59.928;10.878;2023-07-16T14:19:09;9.73;;;3.47;;
80725;SDS011;70113;59.928;10.878;2023-07-16T14:21:37;12.27;;;3.05;;
80725;SDS011;70113;59.928;10.878;2023-07-16T14:24:03;11.63;;;2.90;;
80725;SDS011;70113;59.928;10.878;2023-07-16T14:26:30;9.15;;;2.92;;
80725;SDS011;70113;59.928;10.878;2023-07-16T14:28:56;10.13;;;2.58;;
80725;SDS011;70113;59.928;10.878;2023-07-16T14:31:22;12.45;;;3.40;;